sensor_id;sensor_type;location;lat;lon;timestamp;P1;durP1;ratioP1;P2;durP2;ratioP2
15198;SDS011;7700;48.654;9.070;2022-11-04T00:01:18;1.33;;;1.17;;
15198;SDS011;7700;48.654;9.070;2022-11-04T00:03:45;1.20;;;1.10;;
15198;SDS011;7700;48.654;9.070;2022-11-04T00:06:11;1.20;;;1.10;;
15198;SDS011;7700;48.654;9.070;2022-11-04T00:08:37;1.20;;;1.10;;
15198;SDS011;7700;48.654;9.070;2022-11-04T00:11:03;2.67;;;0.97;;
15198;SDS011;7700;48.654;9.070;2022-11-04T00:13:48;1.20;;;1.10;;
15198;SDS011;7700;48.654;9.070;2022-11-04T00:16:14;1.30;;;1.20;;
15198;SDS011;7700;48.654;9.070;2022-11-04T00:18:59;1.37;;;1.03;;
15198;SDS011;7700;48.654;9.070;2022-11-04T00:21:26;1.23;;;1.20;;
15198;SDS011;7700;48.654;9.070;2022-11-04T00:24:11;1.13;;;1.03;;
15198;SDS011;7700;48.654;9.070;2022-11-04T00:26:57;0.90;;;0.90;;
15198;SDS011;7700;48.654;9.070;2022-11-04T00:29:52;1.07;;;1.07;;
15198;SDS011;7700;48.654;9.070;2022-11-04T00:32:18;1.47;;;1.23;;
15198;SDS011;7700;48.654;9.070;2022-11-04T00:35:03;1.20;;;1.10;;
15198;SDS011;7700;48.654;9.070;2022-11-04T00:37:29;1.57;;;1.27;;
15198;SDS011;7700;48.654;9.070;2022-11-04T00:39:55;0.87;;;0.87;;
15198;SDS011;7700;48.654;9.070;2022-11-04T00:42:21;1.20;;;1.10;;
15198;SDS011;7700;48.654;9.070;2022-11-04T00:44:47;1.13;;;1.03;;
15198;SDS011;7700;48.654;9.070;2022-11-04T00:47:13;0.87;;;0.87;;
15198;SDS011;7700;48.654;9.070;2022-11-04T00:49:39;1.63;;;1.13;;
15198;SDS011;7700;48.654;9.070;2022-11-04T00:52:05;2.10;;;1.20;;
15198;SDS011;7700;48.654;9.070;2022-11-04T00:54:31;1.17;;;1.07;;
15198;SDS011;7700;48.654;9.070;2022-11-04T00:56:57;1.50;;;1.30;;
15198;SDS011;7700;48.654;9.070;2022-11-04T00:59:23;1.20;;;1.10;;
15198;SDS011;7700;48.654;9.070;2022-11-04T01:01:49;1.23;;;1.13;;
15198;SDS011;7700;48.654;9.070;2022-11-04T01:04:15;1.30;;;1.20;;
15198;SDS011;7700;48.654;9.070;2022-11-04T01:06:41;1.10;;;1.00;;
15198;SDS011;7700;48.654;9.070;2022-11-04T01:09:07;1.27;;;1.17;;
15198;SDS011;7700;48.654;9.070;2022-11-04T01:11:34;1.40;;;1.00;;
15198;SDS011;7700;48.654;9.070;2022-11-04T01:13:59;1.37;;;1.20;;
15198;SDS011;7700;48.654;9.070;2022-11-04T01:16:26;1.47;;;1.10;;
15198;SDS011;7700;48.654;9.070;2022-11-04T01:18:52;1.97;;;1.40;;
15198;SDS011;7700;48.654;9.070;2022-11-04T01:21:18;1.40;;;1.17;;
15198;SDS011;7700;48.654;9.070;2022-11-04T01:23:45;1.30;;;1.20;;
15198;SDS011;7700;48.654;9.070;2022-11-04T01:26:12;2.23;;;1.00;;
15198;SDS011;7700;48.654;9.070;2022-11-04T01:28:39;1.10;;;1.00;;
15198;SDS011;7700;48.654;9.070;2022-11-04T01:31:06;1.67;;;0.90;;
15198;SDS011;7700;48.654;9.070;2022-11-04T01:33:32;0.83;;;0.83;;
15198;SDS011;7700;48.654;9.070;2022-11-04T01:35:58;2.17;;;1.33;;
15198;SDS011;7700;48.654;9.070;2022-11-04T01:38:25;0.60;;;0.60;;
15198;SDS011;7700;48.654;9.070;2022-11-04T01:40:51;1.97;;;1.00;;
15198;SDS011;7700;48.654;9.070;2022-11-04T01:43:18;0.90;;;0.83;;
15198;SDS011;7700;48.654;9.070;2022-11-04T01:45:45;1.57;;;1.13;;
15198;SDS011;7700;48.654;9.070;2022-11-04T01:48:15;0.77;;;0.77;;
15198;SDS011;7700;48.654;9.070;2022-11-04T01:50:45;1.03;;;0.93;;
15198;SDS011;7700;48.654;9.070;2022-11-04T01:53:14;0.83;;;0.80;;
15198;SDS011;7700;48.654;9.070;2022-11-04T01:55:42;0.70;;;0.70;;
15198;SDS011;7700;48.654;9.070;2022-11-04T01:58:11;1.00;;;0.70;;
15198;SDS011;7700;48.654;9.070;2022-11-04T02:00:38;1.60;;;1.00;;
15198;SDS011;7700;48.654;9.070;2022-11-04T02:03:06;1.30;;;1.20;;
15198;SDS011;7700;48.654;9.070;2022-11-04T02:05:33;1.80;;;0.87;;
15198;SDS011;7700;48.654;9.070;2022-11-04T02:08:00;1.30;;;0.93;;
15198;SDS011;7700;48.654;9.070;2022-11-04T02:10:27;1.20;;;1.00;;
15198;SDS011;7700;48.654;9.070;2022-11-04T02:12:54;1.10;;;1.00;;
15198;SDS011;7700;48.654;9.070;2022-11-04T02:16:09;1.23;;;0.80;;
15198;SDS011;7700;48.654;9.070;2022-11-04T02:18:15;0.87;;;0.87;;
15198;SDS011;7700;48.654;9.070;2022-11-04T02:23:23;1.40;;;0.90;;
15198;SDS011;7700;48.654;9.070;2022-11-04T02:36:19;0.70;;;0.70;;
15198;SDS011;7700;48.654;9.070;2022-11-04T02:38:54;1.60;;;0.67;;
15198;SDS011;7700;48.654;9.070;2022-11-04T02:41:29;1.23;;;0.57;;
15198;SDS011;7700;48.654;9.070;2022-11-04T02:49:12;1.30;;;0.50;;
15198;SDS011;7700;48.654;9.070;2022-11-04T02:51:40;1.50;;;0.70;;
15198;SDS011;7700;48.654;9.070;2022-11-04T02:56:53;0.97;;;0.40;;
15198;SDS011;7700;48.654;9.070;2022-11-04T02:59:23;0.67;;;0.60;;
15198;SDS011;7700;48.654;9.070;2022-11-04T03:01:50;1.20;;;0.70;;
15198;SDS011;7700;48.654;9.070;2022-11-04T03:04:19;0.97;;;0.40;;
15198;SDS011;7700;48.654;9.070;2022-11-04T03:06:47;1.37;;;0.70;;
15198;SDS011;7700;48.654;9.070;2022-11-04T03:09:14;0.97;;;0.60;;
15198;SDS011;7700;48.654;9.070;2022-11-04T03:11:43;1.00;;;0.70;;
15198;SDS011;7700;48.654;9.070;2022-11-04T03:14:15;1.60;;;0.90;;
15198;SDS011;7700;48.654;9.070;2022-11-04T03:16:47;0.83;;;0.77;;
15198;SDS011;7700;48.654;9.070;2022-11-04T03:19:37;1.03;;;0.43;;
15198;SDS011;7700;48.654;9.070;2022-11-04T03:24:33;0.60;;;0.47;;
15198;SDS011;7700;48.654;9.070;2022-11-04T03:29:56;1.10;;;0.70;;
15198;SDS011;7700;48.654;9.070;2022-11-04T03:32:31;1.83;;;0.60;;
15198;SDS011;7700;48.654;9.070;2022-11-04T03:34:59;0.80;;;0.60;;
15198;SDS011;7700;48.654;9.070;2022-11-04T03:37:25;0.77;;;0.53;;
15198;SDS011;7700;48.654;9.070;2022-11-04T03:39:52;2.10;;;0.50;;
15198;SDS011;7700;48.654;9.070;2022-11-04T03:42:18;0.90;;;0.57;;
15198;SDS011;7700;48.654;9.070;2022-11-04T03:44:48;2.63;;;1.03;;
15198;SDS011;7700;48.654;9.070;2022-11-04T03:47:15;1.00;;;0.67;;
15198;SDS011;7700;48.654;9.070;2022-11-04T03:49:42;0.60;;;0.60;;
15198;SDS011;7700;48.654;9.070;2022-11-04T03:52:09;1.03;;;0.60;;
15198;SDS011;7700;48.654;9.070;2022-11-04T03:54:35;0.80;;;0.50;;
15198;SDS011;7700;48.654;9.070;2022-11-04T03:57:05;0.93;;;0.73;;
15198;SDS011;7700;48.654;9.070;2022-11-04T04:07:17;1.97;;;0.70;;
15198;SDS011;7700;48.654;9.070;2022-11-04T04:09:49;0.50;;;0.50;;
15198;SDS011;7700;48.654;9.070;2022-11-04T04:12:26;2.37;;;0.63;;
15198;SDS011;7700;48.654;9.070;2022-11-04T04:14:54;1.00;;;0.90;;
15198;SDS011;7700;48.654;9.070;2022-11-04T04:17:38;0.67;;;0.53;;
15198;SDS011;7700;48.654;9.070;2022-11-04T04:20:11;0.70;;;0.70;;
15198;SDS011;7700;48.654;9.070;2022-11-04T04:22:45;1.10;;;0.83;;
15198;SDS011;7700;48.654;9.070;2022-11-04T04:25:12;1.60;;;0.77;;
15198;SDS011;7700;48.654;9.070;2022-11-04T04:27:57;3.60;;;0.80;;
15198;SDS011;7700;48.654;9.070;2022-11-04T04:30:24;1.73;;;0.60;;
15198;SDS011;7700;48.654;9.070;2022-11-04T04:32:55;0.80;;;0.47;;
15198;SDS011;7700;48.654;9.070;2022-11-04T04:35:44;1.33;;;0.73;;
15198;SDS011;7700;48.654;9.070;2022-11-04T04:38:14;0.60;;;0.50;;
15198;SDS011;7700;48.654;9.070;2022-11-04T04:41:07;2.63;;;0.63;;
15198;SDS011;7700;48.654;9.070;2022-11-04T04:43:53;1.97;;;0.60;;
15198;SDS011;7700;48.654;9.070;2022-11-04T04:46:38;2.87;;;0.87;;
15198;SDS011;7700;48.654;9.070;2022-11-04T04:49:05;1.47;;;0.70;;
15198;SDS011;7700;48.654;9.070;2022-11-04T04:51:32;0.80;;;0.60;;
15198;SDS011;7700;48.654;9.070;2022-11-04T04:53:59;2.87;;;0.80;;
15198;SDS011;7700;48.654;9.070;2022-11-04T04:56:25;2.73;;;0.90;;
15198;SDS011;7700;48.654;9.070;2022-11-04T04:58:51;1.30;;;1.20;;
15198;SDS011;7700;48.654;9.070;2022-11-04T05:01:17;2.37;;;1.20;;
15198;SDS011;7700;48.654;9.070;2022-11-04T05:03:43;2.33;;;0.63;;
15198;SDS011;7700;48.654;9.070;2022-11-04T05:06:09;1.43;;;0.70;;
15198;SDS011;7700;48.654;9.070;2022-11-04T05:08:35;2.33;;;0.90;;
15198;SDS011;7700;48.654;9.070;2022-11-04T05:11:01;1.90;;;0.70;;
15198;SDS011;7700;48.654;9.070;2022-11-04T05:13:27;1.27;;;0.70;;
15198;SDS011;7700;48.654;9.070;2022-11-04T05:15:56;1.47;;;0.80;;
15198;SDS011;7700;48.654;9.070;2022-11-04T05:18:22;1.37;;;0.97;;
15198;SDS011;7700;48.654;9.070;2022-11-04T05:20:48;1.87;;;1.27;;
15198;SDS011;7700;48.654;9.070;2022-11-04T05:23:14;1.57;;;1.40;;
15198;SDS011;7700;48.654;9.070;2022-11-04T05:25:40;1.73;;;1.00;;
15198;SDS011;7700;48.654;9.070;2022-11-04T05:28:07;1.57;;;1.00;;
15198;SDS011;7700;48.654;9.070;2022-11-04T05:30:34;2.53;;;1.07;;
15198;SDS011;7700;48.654;9.070;2022-11-04T05:33:00;3.23;;;0.90;;
15198;SDS011;7700;48.654;9.070;2022-11-04T05:35:26;1.57;;;1.03;;
15198;SDS011;7700;48.654;9.070;2022-11-04T05:37:53;1.03;;;0.90;;
15198;SDS011;7700;48.654;9.070;2022-11-04T05:40:20;1.40;;;1.30;;
15198;SDS011;7700;48.654;9.070;2022-11-04T05:42:46;2.03;;;1.40;;
15198;SDS011;7700;48.654;9.070;2022-11-04T05:45:12;0.90;;;0.90;;
15198;SDS011;7700;48.654;9.070;2022-11-04T05:47:38;1.67;;;0.90;;
15198;SDS011;7700;48.654;9.070;2022-11-04T05:50:05;3.10;;;1.00;;
15198;SDS011;7700;48.654;9.070;2022-11-04T05:52:31;3.47;;;1.40;;
15198;SDS011;7700;48.654;9.070;2022-11-04T05:54:57;2.13;;;1.60;;
15198;SDS011;7700;48.654;9.070;2022-11-04T05:57:23;3.03;;;1.67;;
15198;SDS011;7700;48.654;9.070;2022-11-04T05:59:49;4.00;;;1.83;;
15198;SDS011;7700;48.654;9.070;2022-11-04T06:02:15;2.73;;;2.13;;
15198;SDS011;7700;48.654;9.070;2022-11-04T06:04:41;2.33;;;2.03;;
15198;SDS011;7700;48.654;9.070;2022-11-04T06:07:07;2.63;;;2.37;;
15198;SDS011;7700;48.654;9.070;2022-11-04T06:09:33;3.70;;;2.10;;
15198;SDS011;7700;48.654;9.070;2022-11-04T06:12:07;3.47;;;2.23;;
15198;SDS011;7700;48.654;9.070;2022-11-04T06:14:33;4.37;;;3.53;;
15198;SDS011;7700;48.654;9.070;2022-11-04T06:16:58;6.37;;;5.00;;
15198;SDS011;7700;48.654;9.070;2022-11-04T06:19:25;5.83;;;4.33;;
15198;SDS011;7700;48.654;9.070;2022-11-04T06:21:51;3.50;;;1.20;;
15198;SDS011;7700;48.654;9.070;2022-11-04T06:24:17;5.80;;;4.47;;
15198;SDS011;7700;48.654;9.070;2022-11-04T06:26:43;3.37;;;3.07;;
15198;SDS011;7700;48.654;9.070;2022-11-04T06:29:09;4.97;;;4.57;;
15198;SDS011;7700;48.654;9.070;2022-11-04T06:31:35;7.17;;;6.57;;
15198;SDS011;7700;48.654;9.070;2022-11-04T06:34:01;5.50;;;5.03;;
15198;SDS011;7700;48.654;9.070;2022-11-04T06:36:27;4.27;;;3.87;;
15198;SDS011;7700;48.654;9.070;2022-11-04T06:38:54;2.70;;;1.20;;
15198;SDS011;7700;48.654;9.070;2022-11-04T06:41:20;1.30;;;1.20;;
15198;SDS011;7700;48.654;9.070;2022-11-04T06:43:46;2.63;;;1.10;;
15198;SDS011;7700;48.654;9.070;2022-11-04T06:46:25;1.73;;;0.70;;
15198;SDS011;7700;48.654;9.070;2022-11-04T06:48:51;1.30;;;1.00;;
15198;SDS011;7700;48.654;9.070;2022-11-04T06:51:17;0.93;;;0.90;;
15198;SDS011;7700;48.654;9.070;2022-11-04T06:53:43;2.70;;;1.10;;
15198;SDS011;7700;48.654;9.070;2022-11-04T06:56:09;1.03;;;0.87;;
15198;SDS011;7700;48.654;9.070;2022-11-04T06:58:35;1.57;;;0.90;;
15198;SDS011;7700;48.654;9.070;2022-11-04T07:01:01;1.00;;;0.83;;
15198;SDS011;7700;48.654;9.070;2022-11-04T07:03:27;1.20;;;0.90;;
15198;SDS011;7700;48.654;9.070;2022-11-04T07:05:53;0.60;;;0.60;;
15198;SDS011;7700;48.654;9.070;2022-11-04T07:08:20;3.53;;;1.07;;
15198;SDS011;7700;48.654;9.070;2022-11-04T07:10:46;1.93;;;1.33;;
15198;SDS011;7700;48.654;9.070;2022-11-04T07:13:12;18.53;;;10.60;;
15198;SDS011;7700;48.654;9.070;2022-11-04T07:15:40;20.23;;;12.40;;
15198;SDS011;7700;48.654;9.070;2022-11-04T07:18:06;16.00;;;11.33;;
15198;SDS011;7700;48.654;9.070;2022-11-04T07:20:35;13.07;;;8.23;;
15198;SDS011;7700;48.654;9.070;2022-11-04T07:23:02;22.17;;;14.13;;
15198;SDS011;7700;48.654;9.070;2022-11-04T07:25:28;14.13;;;10.73;;
15198;SDS011;7700;48.654;9.070;2022-11-04T07:27:54;15.47;;;11.40;;
15198;SDS011;7700;48.654;9.070;2022-11-04T07:30:20;12.43;;;9.90;;
15198;SDS011;7700;48.654;9.070;2022-11-04T07:32:46;7.00;;;5.93;;
15198;SDS011;7700;48.654;9.070;2022-11-04T07:35:12;5.33;;;4.83;;
15198;SDS011;7700;48.654;9.070;2022-11-04T07:37:38;7.17;;;5.10;;
15198;SDS011;7700;48.654;9.070;2022-11-04T07:40:04;6.37;;;5.77;;
15198;SDS011;7700;48.654;9.070;2022-11-04T07:42:31;7.20;;;6.50;;
15198;SDS011;7700;48.654;9.070;2022-11-04T07:44:57;6.83;;;5.97;;
15198;SDS011;7700;48.654;9.070;2022-11-04T07:47:23;3.63;;;2.60;;
15198;SDS011;7700;48.654;9.070;2022-11-04T07:49:49;2.77;;;2.00;;
15198;SDS011;7700;48.654;9.070;2022-11-04T07:52:15;2.90;;;2.17;;
15198;SDS011;7700;48.654;9.070;2022-11-04T07:54:41;4.23;;;2.77;;
15198;SDS011;7700;48.654;9.070;2022-11-04T07:57:07;4.07;;;2.50;;
15198;SDS011;7700;48.654;9.070;2022-11-04T07:59:33;3.03;;;2.73;;
15198;SDS011;7700;48.654;9.070;2022-11-04T08:01:59;2.27;;;2.13;;
15198;SDS011;7700;48.654;9.070;2022-11-04T08:04:25;3.30;;;2.97;;
15198;SDS011;7700;48.654;9.070;2022-11-04T08:06:51;3.23;;;2.83;;
15198;SDS011;7700;48.654;9.070;2022-11-04T08:09:17;3.90;;;2.57;;
15198;SDS011;7700;48.654;9.070;2022-11-04T08:11:43;4.57;;;3.57;;
15198;SDS011;7700;48.654;9.070;2022-11-04T08:14:09;4.73;;;4.30;;
15198;SDS011;7700;48.654;9.070;2022-11-04T08:16:35;6.50;;;4.10;;
15198;SDS011;7700;48.654;9.070;2022-11-04T08:19:01;4.27;;;3.83;;
15198;SDS011;7700;48.654;9.070;2022-11-04T08:21:28;4.90;;;3.47;;
15198;SDS011;7700;48.654;9.070;2022-11-04T08:23:54;3.07;;;2.87;;
15198;SDS011;7700;48.654;9.070;2022-11-04T08:26:21;5.83;;;2.40;;
15198;SDS011;7700;48.654;9.070;2022-11-04T08:28:50;2.80;;;1.50;;
15198;SDS011;7700;48.654;9.070;2022-11-04T08:31:17;1.90;;;1.57;;
15198;SDS011;7700;48.654;9.070;2022-11-04T08:33:43;1.83;;;1.50;;
15198;SDS011;7700;48.654;9.070;2022-11-04T08:36:12;1.50;;;1.40;;
15198;SDS011;7700;48.654;9.070;2022-11-04T08:38:38;2.33;;;1.53;;
15198;SDS011;7700;48.654;9.070;2022-11-04T08:41:05;1.83;;;1.40;;
15198;SDS011;7700;48.654;9.070;2022-11-04T08:43:31;2.37;;;1.10;;
15198;SDS011;7700;48.654;9.070;2022-11-04T08:45:58;1.50;;;1.40;;
15198;SDS011;7700;48.654;9.070;2022-11-04T08:48:24;2.07;;;1.47;;
15198;SDS011;7700;48.654;9.070;2022-11-04T08:50:51;2.10;;;1.90;;
15198;SDS011;7700;48.654;9.070;2022-11-04T08:53:18;2.30;;;1.40;;
15198;SDS011;7700;48.654;9.070;2022-11-04T08:55:44;2.77;;;1.17;;
15198;SDS011;7700;48.654;9.070;2022-11-04T08:58:10;2.20;;;1.30;;
15198;SDS011;7700;48.654;9.070;2022-11-04T09:00:36;1.40;;;1.00;;
15198;SDS011;7700;48.654;9.070;2022-11-04T09:03:02;1.77;;;1.13;;
15198;SDS011;7700;48.654;9.070;2022-11-04T09:05:28;1.87;;;1.00;;
15198;SDS011;7700;48.654;9.070;2022-11-04T09:07:54;2.00;;;0.70;;
15198;SDS011;7700;48.654;9.070;2022-11-04T09:10:21;2.90;;;0.90;;
15198;SDS011;7700;48.654;9.070;2022-11-04T09:12:47;2.23;;;1.00;;
15198;SDS011;7700;48.654;9.070;2022-11-04T09:15:13;2.40;;;1.00;;
15198;SDS011;7700;48.654;9.070;2022-11-04T09:17:39;1.23;;;1.00;;
15198;SDS011;7700;48.654;9.070;2022-11-04T09:20:05;1.80;;;1.00;;
15198;SDS011;7700;48.654;9.070;2022-11-04T09:22:32;2.50;;;1.00;;
15198;SDS011;7700;48.654;9.070;2022-11-04T09:24:58;3.43;;;1.10;;
15198;SDS011;7700;48.654;9.070;2022-11-04T09:27:24;2.83;;;1.13;;
15198;SDS011;7700;48.654;9.070;2022-11-04T09:29:50;1.67;;;0.70;;
15198;SDS011;7700;48.654;9.070;2022-11-04T09:32:16;1.43;;;0.80;;
15198;SDS011;7700;48.654;9.070;2022-11-04T09:34:42;2.77;;;0.80;;
15198;SDS011;7700;48.654;9.070;2022-11-04T09:37:08;2.00;;;1.20;;
15198;SDS011;7700;48.654;9.070;2022-11-04T09:39:34;3.23;;;1.20;;
15198;SDS011;7700;48.654;9.070;2022-11-04T09:42:09;2.60;;;1.00;;
15198;SDS011;7700;48.654;9.070;2022-11-04T09:47:04;1.80;;;1.00;;
15198;SDS011;7700;48.654;9.070;2022-11-04T09:49:34;2.87;;;1.03;;
15198;SDS011;7700;48.654;9.070;2022-11-04T09:52:01;2.37;;;1.00;;
15198;SDS011;7700;48.654;9.070;2022-11-04T09:54:37;1.73;;;0.80;;
15198;SDS011;7700;48.654;9.070;2022-11-04T09:57:05;1.63;;;0.90;;
15198;SDS011;7700;48.654;9.070;2022-11-04T09:59:38;3.77;;;1.03;;
15198;SDS011;7700;48.654;9.070;2022-11-04T10:03:42;3.20;;;1.10;;
15198;SDS011;7700;48.654;9.070;2022-11-04T10:11:27;0.73;;;0.60;;
15198;SDS011;7700;48.654;9.070;2022-11-04T10:14:08;1.30;;;0.70;;
15198;SDS011;7700;48.654;9.070;2022-11-04T10:27:08;2.47;;;1.03;;
15198;SDS011;7700;48.654;9.070;2022-11-04T10:29:36;2.43;;;1.00;;
15198;SDS011;7700;48.654;9.070;2022-11-04T10:32:04;1.37;;;0.93;;
15198;SDS011;7700;48.654;9.070;2022-11-04T10:34:41;2.83;;;0.70;;
15198;SDS011;7700;48.654;9.070;2022-11-04T10:37:11;1.67;;;1.00;;
15198;SDS011;7700;48.654;9.070;2022-11-04T10:39:40;1.33;;;0.70;;
15198;SDS011;7700;48.654;9.070;2022-11-04T10:42:09;2.67;;;1.00;;
15198;SDS011;7700;48.654;9.070;2022-11-04T10:44:36;2.57;;;1.30;;
15198;SDS011;7700;48.654;9.070;2022-11-04T10:49:53;1.90;;;1.07;;
15198;SDS011;7700;48.654;9.070;2022-11-04T10:52:21;2.73;;;1.23;;
15198;SDS011;7700;48.654;9.070;2022-11-04T10:54:48;2.50;;;1.10;;
15198;SDS011;7700;48.654;9.070;2022-11-04T10:57:19;1.07;;;0.80;;
15198;SDS011;7700;48.654;9.070;2022-11-04T10:59:50;3.70;;;1.00;;
15198;SDS011;7700;48.654;9.070;2022-11-04T11:02:17;2.57;;;0.90;;
15198;SDS011;7700;48.654;9.070;2022-11-04T11:04:43;2.67;;;1.20;;
15198;SDS011;7700;48.654;9.070;2022-11-04T11:07:11;0.90;;;0.70;;
15198;SDS011;7700;48.654;9.070;2022-11-04T11:14:37;4.73;;;1.20;;
15198;SDS011;7700;48.654;9.070;2022-11-04T11:19:43;5.27;;;1.20;;
15198;SDS011;7700;48.654;9.070;2022-11-04T11:22:17;2.97;;;1.30;;
15198;SDS011;7700;48.654;9.070;2022-11-04T11:24:52;2.63;;;1.33;;
15198;SDS011;7700;48.654;9.070;2022-11-04T11:27:18;1.87;;;0.77;;
15198;SDS011;7700;48.654;9.070;2022-11-04T11:29:46;2.27;;;1.47;;
15198;SDS011;7700;48.654;9.070;2022-11-04T11:32:41;2.60;;;1.03;;
15198;SDS011;7700;48.654;9.070;2022-11-04T11:35:15;1.70;;;0.90;;
15198;SDS011;7700;48.654;9.070;2022-11-04T11:37:43;2.90;;;1.10;;
15198;SDS011;7700;48.654;9.070;2022-11-04T11:40:26;4.10;;;1.50;;
15198;SDS011;7700;48.654;9.070;2022-11-04T11:42:53;4.13;;;1.50;;
15198;SDS011;7700;48.654;9.070;2022-11-04T11:45:19;5.10;;;1.83;;
15198;SDS011;7700;48.654;9.070;2022-11-04T11:47:47;2.17;;;1.10;;
15198;SDS011;7700;48.654;9.070;2022-11-04T11:50:19;5.00;;;1.37;;
15198;SDS011;7700;48.654;9.070;2022-11-04T11:52:48;2.40;;;1.20;;
15198;SDS011;7700;48.654;9.070;2022-11-04T11:57:55;3.00;;;1.10;;
15198;SDS011;7700;48.654;9.070;2022-11-04T12:00:24;3.57;;;1.23;;
15198;SDS011;7700;48.654;9.070;2022-11-04T12:06:11;4.30;;;1.27;;
15198;SDS011;7700;48.654;9.070;2022-11-04T12:11:02;2.00;;;1.20;;
15198;SDS011;7700;48.654;9.070;2022-11-04T12:13:42;3.50;;;1.50;;
15198;SDS011;7700;48.654;9.070;2022-11-04T12:18:48;1.50;;;1.00;;
15198;SDS011;7700;48.654;9.070;2022-11-04T12:21:24;2.80;;;1.10;;
15198;SDS011;7700;48.654;9.070;2022-11-04T12:26:28;5.13;;;1.30;;
15198;SDS011;7700;48.654;9.070;2022-11-04T12:34:18;2.63;;;1.30;;
15198;SDS011;7700;48.654;9.070;2022-11-04T12:37:02;2.55;;;1.20;;
15198;SDS011;7700;48.654;9.070;2022-11-04T12:44:31;4.57;;;1.20;;
15198;SDS011;7700;48.654;9.070;2022-11-04T12:47:08;2.73;;;1.10;;
15198;SDS011;7700;48.654;9.070;2022-11-04T12:49:39;2.20;;;1.17;;
15198;SDS011;7700;48.654;9.070;2022-11-04T12:55:01;3.58;;;1.45;;
15198;SDS011;7700;48.654;9.070;2022-11-04T13:00:18;3.23;;;1.20;;
15198;SDS011;7700;48.654;9.070;2022-11-04T13:13:04;2.47;;;0.80;;
15198;SDS011;7700;48.654;9.070;2022-11-04T13:15:32;4.15;;;1.23;;
15198;SDS011;7700;48.654;9.070;2022-11-04T13:18:03;2.67;;;1.35;;
15198;SDS011;7700;48.654;9.070;2022-11-04T13:20:32;2.63;;;1.10;;
15198;SDS011;7700;48.654;9.070;2022-11-04T13:23:04;5.15;;;1.42;;
15198;SDS011;7700;48.654;9.070;2022-11-04T13:25:35;1.50;;;0.77;;
15198;SDS011;7700;48.654;9.070;2022-11-04T13:28:02;3.75;;;1.15;;
15198;SDS011;7700;48.654;9.070;2022-11-04T13:33:00;1.17;;;0.80;;
15198;SDS011;7700;48.654;9.070;2022-11-04T13:37:58;1.75;;;1.08;;
15198;SDS011;7700;48.654;9.070;2022-11-04T13:40:29;1.85;;;0.80;;
15198;SDS011;7700;48.654;9.070;2022-11-04T13:45:47;4.72;;;1.40;;
15198;SDS011;7700;48.654;9.070;2022-11-04T13:48:14;4.60;;;0.90;;
15198;SDS011;7700;48.654;9.070;2022-11-04T13:50:41;5.82;;;1.30;;
15198;SDS011;7700;48.654;9.070;2022-11-04T13:53:08;1.90;;;0.85;;
15198;SDS011;7700;48.654;9.070;2022-11-04T13:55:35;1.25;;;0.70;;
15198;SDS011;7700;48.654;9.070;2022-11-04T13:58:16;1.90;;;0.57;;
15198;SDS011;7700;48.654;9.070;2022-11-04T14:01:07;1.63;;;0.93;;
15198;SDS011;7700;48.654;9.070;2022-11-04T14:03:39;1.45;;;0.70;;
15198;SDS011;7700;48.654;9.070;2022-11-04T14:06:06;1.00;;;1.00;;
15198;SDS011;7700;48.654;9.070;2022-11-04T14:08:33;3.78;;;1.85;;
15198;SDS011;7700;48.654;9.070;2022-11-04T14:11:01;3.35;;;1.42;;
15198;SDS011;7700;48.654;9.070;2022-11-04T14:18:27;2.13;;;0.98;;
15198;SDS011;7700;48.654;9.070;2022-11-04T14:21:00;3.95;;;0.98;;
15198;SDS011;7700;48.654;9.070;2022-11-04T14:23:27;3.22;;;1.10;;
15198;SDS011;7700;48.654;9.070;2022-11-04T14:25:57;2.58;;;1.17;;
15198;SDS011;7700;48.654;9.070;2022-11-04T14:28:25;1.50;;;1.07;;
15198;SDS011;7700;48.654;9.070;2022-11-04T14:30:53;1.07;;;0.70;;
15198;SDS011;7700;48.654;9.070;2022-11-04T14:33:28;2.63;;;1.30;;
15198;SDS011;7700;48.654;9.070;2022-11-04T14:36:12;1.77;;;1.10;;
15198;SDS011;7700;48.654;9.070;2022-11-04T14:38:38;3.07;;;1.67;;
15198;SDS011;7700;48.654;9.070;2022-11-04T14:43:43;1.80;;;1.00;;
15198;SDS011;7700;48.654;9.070;2022-11-04T14:46:11;1.10;;;0.70;;
15198;SDS011;7700;48.654;9.070;2022-11-04T14:48:41;2.00;;;0.67;;
15198;SDS011;7700;48.654;9.070;2022-11-04T14:51:16;0.77;;;0.70;;
15198;SDS011;7700;48.654;9.070;2022-11-04T14:53:46;1.17;;;0.50;;
15198;SDS011;7700;48.654;9.070;2022-11-04T14:56:19;1.73;;;0.80;;
15198;SDS011;7700;48.654;9.070;2022-11-04T14:58:59;1.80;;;0.60;;
15198;SDS011;7700;48.654;9.070;2022-11-04T15:01:28;0.93;;;0.40;;
15198;SDS011;7700;48.654;9.070;2022-11-04T15:03:56;1.93;;;0.50;;
15198;SDS011;7700;48.654;9.070;2022-11-04T15:06:24;1.07;;;0.60;;
15198;SDS011;7700;48.654;9.070;2022-11-04T15:08:51;0.83;;;0.53;;
15198;SDS011;7700;48.654;9.070;2022-11-04T15:11:19;2.30;;;0.90;;
15198;SDS011;7700;48.654;9.070;2022-11-04T15:14:13;0.63;;;0.60;;
15198;SDS011;7700;48.654;9.070;2022-11-04T15:16:39;1.57;;;0.40;;
15198;SDS011;7700;48.654;9.070;2022-11-04T15:19:07;1.37;;;0.60;;
15198;SDS011;7700;48.654;9.070;2022-11-04T15:21:37;0.93;;;0.60;;
15198;SDS011;7700;48.654;9.070;2022-11-04T15:24:04;0.83;;;0.33;;
15198;SDS011;7700;48.654;9.070;2022-11-04T15:26:31;0.67;;;0.60;;
15198;SDS011;7700;48.654;9.070;2022-11-04T15:28:59;0.87;;;0.50;;
15198;SDS011;7700;48.654;9.070;2022-11-04T15:31:26;0.70;;;0.70;;
15198;SDS011;7700;48.654;9.070;2022-11-04T15:33:54;1.57;;;0.70;;
15198;SDS011;7700;48.654;9.070;2022-11-04T15:36:22;2.47;;;1.00;;
15198;SDS011;7700;48.654;9.070;2022-11-04T15:38:50;0.60;;;0.50;;
15198;SDS011;7700;48.654;9.070;2022-11-04T15:41:18;0.73;;;0.60;;
15198;SDS011;7700;48.654;9.070;2022-11-04T15:44:05;2.83;;;0.90;;
15198;SDS011;7700;48.654;9.070;2022-11-04T15:46:31;1.60;;;0.80;;
15198;SDS011;7700;48.654;9.070;2022-11-04T15:48:58;1.13;;;0.57;;
15198;SDS011;7700;48.654;9.070;2022-11-04T15:51:25;0.63;;;0.50;;
15198;SDS011;7700;48.654;9.070;2022-11-04T15:53:52;0.60;;;0.40;;
15198;SDS011;7700;48.654;9.070;2022-11-04T15:56:23;0.40;;;0.40;;
15198;SDS011;7700;48.654;9.070;2022-11-04T15:58:51;1.00;;;0.90;;
15198;SDS011;7700;48.654;9.070;2022-11-04T16:01:18;1.37;;;0.80;;
15198;SDS011;7700;48.654;9.070;2022-11-04T16:03:52;1.90;;;0.40;;
15198;SDS011;7700;48.654;9.070;2022-11-04T16:06:30;0.70;;;0.60;;
15198;SDS011;7700;48.654;9.070;2022-11-04T16:09:37;2.30;;;1.30;;
15198;SDS011;7700;48.654;9.070;2022-11-04T16:14:51;1.00;;;0.60;;
15198;SDS011;7700;48.654;9.070;2022-11-04T16:17:18;1.87;;;1.30;;
15198;SDS011;7700;48.654;9.070;2022-11-04T16:19:46;5.33;;;2.37;;
15198;SDS011;7700;48.654;9.070;2022-11-04T16:22:16;6.30;;;2.53;;
15198;SDS011;7700;48.654;9.070;2022-11-04T16:24:44;5.03;;;2.73;;
15198;SDS011;7700;48.654;9.070;2022-11-04T16:27:12;3.47;;;1.83;;
15198;SDS011;7700;48.654;9.070;2022-11-04T16:29:40;1.40;;;1.03;;
15198;SDS011;7700;48.654;9.070;2022-11-04T16:34:32;1.67;;;1.13;;
15198;SDS011;7700;48.654;9.070;2022-11-04T16:36:58;5.10;;;2.50;;
15198;SDS011;7700;48.654;9.070;2022-11-04T16:39:24;2.13;;;1.93;;
15198;SDS011;7700;48.654;9.070;2022-11-04T16:41:50;1.83;;;0.93;;
15198;SDS011;7700;48.654;9.070;2022-11-04T16:44:20;1.83;;;1.07;;
15198;SDS011;7700;48.654;9.070;2022-11-04T16:46:46;1.70;;;1.53;;
15198;SDS011;7700;48.654;9.070;2022-11-04T16:49:13;3.23;;;2.93;;
15198;SDS011;7700;48.654;9.070;2022-11-04T16:51:39;2.07;;;1.90;;
15198;SDS011;7700;48.654;9.070;2022-11-04T16:54:05;5.17;;;2.77;;
15198;SDS011;7700;48.654;9.070;2022-11-04T16:56:32;3.90;;;3.60;;
15198;SDS011;7700;48.654;9.070;2022-11-04T16:58:58;6.20;;;5.43;;
15198;SDS011;7700;48.654;9.070;2022-11-04T17:01:24;6.60;;;5.00;;
15198;SDS011;7700;48.654;9.070;2022-11-04T17:03:51;6.73;;;5.37;;
15198;SDS011;7700;48.654;9.070;2022-11-04T17:06:17;3.03;;;2.57;;
15198;SDS011;7700;48.654;9.070;2022-11-04T17:08:44;5.73;;;5.20;;
15198;SDS011;7700;48.654;9.070;2022-11-04T17:11:10;17.07;;;15.20;;
15198;SDS011;7700;48.654;9.070;2022-11-04T17:13:37;11.93;;;10.47;;
15198;SDS011;7700;48.654;9.070;2022-11-04T17:16:08;8.97;;;8.03;;